Time;durP1;ratioP1;P1;durP2;ratioP2;P2;SDS_P1;SDS_P2;PMS_P1;PMS_P2;Temp;Humidity;BMP_temperature;BMP_pressure;BME280_temperature;BME280_humidity;BME280_pressure;Samples;Min_cycle;Max_cycle;Signal;HPM_P1;HPM_P2
2023/03/13 00:03:04;;;;;;;9.10;4.30;;;;;;;1.14;75.61;99200.55;218269;1257;140515;-64
2023/03/13 00:08:08;;;;;;;9.40;5.50;;;;;;;1.09;76.02;99190.59;218836;1256;141534;-65
2023/03/13 00:13:12;;;;;;;14.30;5.90;;;;;;;1.05;76.26;99182.15;219183;1256;141407;-66
2023/03/13 00:18:14;;;;;;;11.70;6.40;;;;;;;1.02;76.44;99176.71;218774;1256;140003;-64
2023/03/13 00:23:16;;;;;;;6.70;4.70;;;;;;;1.01;76.43;99180.98;218548;1257;140279;-67
2023/03/13 00:28:19;;;;;;;9.80;7.20;;;;;;;1.00;77.14;99178.11;218432;1256;140862;-69
2023/03/13 00:33:21;;;;;;;8.20;6.20;;;;;;;1.00;77.14;99182.27;217568;1257;141009;-68
2023/03/13 00:38:24;;;;;;;9.10;6.80;;;;;;;0.97;77.63;99172.18;218430;1257;139696;-67
2023/03/13 00:43:28;;;;;;;7.90;5.70;;;;;;;0.96;77.89;99172.89;217602;1260;139550;-69
2023/03/13 00:48:32;;;;;;;12.50;6.40;;;;;;;0.95;78.17;99157.55;218127;1257;140520;-68
2023/03/13 00:53:36;;;;;;;8.90;5.40;;;;;;;0.97;78.13;99146.06;218055;1257;140182;-66
2023/03/13 00:58:43;;;;;;;11.60;5.80;;;;;;;0.96;78.45;99141.36;217607;1257;139808;-66
2023/03/13 01:03:50;;;;;;;8.70;5.80;;;;;;;0.92;78.92;99136.98;217568;1256;139687;-67
2023/03/13 01:08:54;;;;;;;9.20;6.00;;;;;;;0.90;79.11;99135.68;217555;1256;139807;-70
2023/03/13 01:14:01;;;;;;;9.00;5.70;;;;;;;0.90;79.31;99134.23;217912;1256;139894;-68
2023/03/13 01:19:09;;;;;;;9.30;6.80;;;;;;;0.89;79.47;99132.28;219819;1256;140159;-68
2023/03/13 01:24:15;;;;;;;10.20;7.40;;;;;;;0.91;79.78;99124.46;218899;1256;140211;-67
2023/03/13 01:29:17;;;;;;;7.30;6.60;;;;;;;0.94;80.13;99127.38;219237;1256;141227;-69
2023/03/13 01:34:20;;;;;;;10.90;8.60;;;;;;;0.96;80.19;99124.13;219080;1256;140512;-70
2023/03/13 01:39:22;;;;;;;11.10;7.40;;;;;;;0.99;80.44;99112.94;219086;1256;139906;-68
2023/03/13 01:44:26;;;;;;;13.70;8.50;;;;;;;1.02;80.50;99110.54;217875;1257;140089;-68
2023/03/13 01:49:33;;;;;;;13.60;8.50;;;;;;;1.06;80.68;99109.00;220282;1256;139839;-67
2023/03/13 01:54:49;;;;;;;13.50;8.90;;;;;;;1.09;80.75;99097.40;220331;1256;141733;-68
2023/03/13 02:00:10;;;;;;;12.80;7.60;;;;;;;1.13;81.06;99094.65;219764;1256;140558;-69
2023/03/13 02:05:18;;;;;;;9.80;6.90;;;;;;;1.16;81.04;99090.56;219032;1257;140388;-72
2023/03/13 02:10:23;;;;;;;11.50;7.70;;;;;;;1.21;81.27;99096.77;219026;1256;140891;-70
2023/03/13 02:15:29;;;;;;;12.40;8.10;;;;;;;1.28;81.40;99096.85;217553;1259;139779;-67
2023/03/13 02:20:33;;;;;;;7.60;6.70;;;;;;;1.32;81.54;99091.76;217650;1259;140874;-65
2023/03/13 02:25:50;;;;;;;9.60;6.40;;;;;;;1.34;81.55;99093.84;218992;1256;139748;-66
2023/03/13 02:30:57;;;;;;;8.00;6.20;;;;;;;1.39;81.91;99099.58;218955;1257;140172;-68
2023/03/13 02:36:02;;;;;;;9.60;6.80;;;;;;;1.43;81.80;99105.23;217705;1256;139944;-68
2023/03/13 02:41:05;;;;;;;15.70;7.40;;;;;;;1.48;82.18;99104.61;218227;1257;139831;-67
2023/03/13 02:46:17;;;;;;;6.60;5.30;;;;;;;1.53;82.53;99101.11;218065;1257;140234;-66
2023/03/13 02:51:30;;;;;;;11.50;6.80;;;;;;;1.57;82.37;99102.03;217863;1257;141237;-70
2023/03/13 02:56:37;;;;;;;12.30;7.60;;;;;;;1.61;82.62;99101.42;218597;1256;140538;-68
2023/03/13 03:01:44;;;;;;;10.00;6.80;;;;;;;1.63;82.35;99108.95;218081;1256;140706;-71
2023/03/13 03:06:47;;;;;;;9.10;6.90;;;;;;;1.64;82.97;99108.10;218928;1256;140024;-67
2023/03/13 03:11:51;;;;;;;9.70;6.00;;;;;;;1.68;82.65;99114.31;218356;1257;141686;-67
2023/03/13 03:16:54;;;;;;;12.10;6.90;;;;;;;1.74;83.29;99103.98;217613;1257;139714;-67
2023/03/13 03:22:03;;;;;;;8.70;6.50;;;;;;;1.77;83.13;99104.23;217592;1256;141701;-68
2023/03/13 03:27:06;;;;;;;12.20;6.40;;;;;;;1.80;83.38;99101.91;217331;1260;139560;-66
2023/03/13 03:32:08;;;;;;;6.90;4.90;;;;;;;1.82;83.39;99094.23;218255;1257;140275;-65
2023/03/13 03:37:11;;;;;;;9.50;6.10;;;;;;;1.85;83.75;99096.54;220051;1256;140404;-67
2023/03/13 03:42:13;;;;;;;11.20;7.10;;;;;;;1.91;83.69;99096.86;219533;1256;141450;-70
2023/03/13 03:47:16;;;;;;;10.40;7.20;;;;;;;1.97;84.08;99096.73;219911;1256;141594;-67
2023/03/13 03:52:19;;;;;;;6.60;5.20;;;;;;;2.04;83.80;99092.05;220346;1256;141640;-68
2023/03/13 03:57:23;;;;;;;8.10;6.70;;;;;;;2.12;83.87;99078.33;220406;1256;140314;-66
2023/03/13 04:02:27;;;;;;;7.00;6.30;;;;;;;2.18;83.76;99072.78;219484;1256;140657;-66
2023/03/13 04:07:30;;;;;;;8.80;7.40;;;;;;;2.23;83.91;99076.28;219110;1256;139838;-67
2023/03/13 04:12:33;;;;;;;11.50;6.50;;;;;;;2.29;84.20;99091.65;218244;1257;139887;-68
2023/03/13 04:17:37;;;;;;;10.60;7.30;;;;;;;2.34;84.41;99085.52;218237;1256;604984;-69
2023/03/13 04:22:41;;;;;;;11.30;7.20;;;;;;;2.40;84.46;99080.00;217746;1260;140291;-70
2023/03/13 04:27:44;;;;;;;10.30;7.60;;;;;;;2.46;84.65;99085.21;217696;1256;140799;-70
2023/03/13 04:32:46;;;;;;;6.70;4.90;;;;;;;2.52;84.74;99073.77;217559;1257;140961;-68
2023/03/13 04:37:49;;;;;;;4.80;4.40;;;;;;;2.57;85.08;99075.87;217850;1257;141626;-67
2023/03/13 04:42:52;;;;;;;15.40;8.60;;;;;;;2.62;85.29;99064.52;218343;1256;140420;-70
2023/03/13 04:47:55;;;;;;;9.00;6.60;;;;;;;2.67;85.38;99069.90;218008;1257;140541;-66
2023/03/13 04:52:59;;;;;;;10.80;7.90;;;;;;;2.73;85.65;99074.01;218651;1256;140386;-67
2023/03/13 04:58:01;;;;;;;6.80;4.80;;;;;;;2.78;85.66;99069.50;218526;1257;140423;-68
2023/03/13 05:03:03;;;;;;;13.20;7.60;;;;;;;2.82;85.68;99062.41;219257;1256;140637;-67
2023/03/13 05:08:07;;;;;;;8.90;6.50;;;;;;;2.86;85.84;99062.90;218532;1256;140623;-68
2023/03/13 05:13:10;;;;;;;9.20;5.80;;;;;;;2.91;85.94;99055.17;218386;1257;141404;-68
2023/03/13 05:18:14;;;;;;;12.70;7.70;;;;;;;2.96;85.86;99049.20;219083;1257;140453;-66
2023/03/13 05:23:17;;;;;;;7.40;6.10;;;;;;;3.02;85.98;99042.64;217658;1260;140713;-67
2023/03/13 05:28:19;;;;;;;10.00;7.30;;;;;;;3.07;85.93;99039.62;218845;1257;140238;-68
2023/03/13 05:33:22;;;;;;;8.80;7.10;;;;;;;3.13;86.09;99032.04;220027;1256;140559;-68
2023/03/13 05:38:24;;;;;;;8.60;7.20;;;;;;;3.20;86.06;99020.38;220227;1256;140426;-70
2023/03/13 05:43:26;;;;;;;8.40;6.50;;;;;;;3.29;86.03;99021.86;220623;1256;139503;-68
2023/03/13 05:48:29;;;;;;;8.70;7.40;;;;;;;3.37;86.00;99016.81;219194;1257;140193;-68
2023/03/13 05:53:32;;;;;;;11.00;6.90;;;;;;;3.47;85.99;99017.73;220350;1256;140425;-72
2023/03/13 05:58:35;;;;;;;7.30;5.70;;;;;;;3.58;86.02;99018.88;218031;1260;142044;-73
2023/03/13 06:03:37;;;;;;;11.50;7.20;;;;;;;3.69;86.25;99014.25;218588;1256;140416;-73
2023/03/13 06:08:40;;;;;;;8.40;6.90;;;;;;;3.82;86.21;99016.62;217795;1257;141108;-75
2023/03/13 06:13:44;;;;;;;10.50;7.70;;;;;;;3.92;86.26;99009.93;218412;1259;139574;-74
2023/03/13 06:18:47;;;;;;;11.00;7.50;;;;;;;4.00;86.39;99011.83;218207;1257;141127;-68
2023/03/13 06:23:51;;;;;;;7.90;4.50;;;;;;;4.13;86.28;99005.40;217651;1258;141412;-68
2023/03/13 06:28:54;;;;;;;6.10;5.60;;;;;;;4.30;86.17;98998.23;217461;1259;139433;-68
2023/03/13 06:33:56;;;;;;;8.10;7.20;;;;;;;4.50;86.35;99001.01;217713;1257;141411;-67
2023/03/13 06:39:00;;;;;;;7.10;5.80;;;;;;;4.68;86.33;98987.02;217985;1257;140625;-70
2023/03/13 06:44:04;;;;;;;11.10;7.30;;;;;;;4.84;86.14;98991.95;217725;1257;139297;-70
2023/03/13 06:49:07;;;;;;;9.30;6.50;;;;;;;4.99;86.15;98990.19;217751;1257;139915;-68
2023/03/13 06:54:10;;;;;;;8.40;6.30;;;;;;;5.18;86.09;98992.73;217678;1256;141700;-69
2023/03/13 06:59:15;;;;;;;13.30;7.50;;;;;;;5.40;86.04;98993.66;217672;1257;140362;-69
2023/03/13 07:04:19;;;;;;;12.10;6.50;;;;;;;5.52;85.69;98998.20;217980;1257;140661;-70
2023/03/13 07:09:22;;;;;;;9.10;6.90;;;;;;;5.60;85.68;99001.84;218161;1257;140873;-69
2023/03/13 07:14:25;;;;;;;9.80;7.90;;;;;;;5.68;85.77;99003.15;217750;1257;140798;-69
2023/03/13 07:19:28;;;;;;;12.40;7.90;;;;;;;5.73;85.52;99000.17;219173;1256;142035;-69
2023/03/13 07:24:30;;;;;;;8.50;7.00;;;;;;;5.85;85.63;98995.02;218116;1257;140703;-68
2023/03/13 07:29:33;;;;;;;12.30;7.40;;;;;;;6.00;85.86;98984.56;217604;1257;139884;-71
2023/03/13 07:34:36;;;;;;;9.80;6.80;;;;;;;6.23;85.69;98976.80;218342;1256;141018;-67
2023/03/13 07:39:37;;;;;;;13.00;8.10;;;;;;;6.43;85.28;98962.39;218867;1257;139682;-67
2023/03/13 07:44:40;;;;;;;10.60;7.40;;;;;;;6.65;84.90;98957.29;220378;1256;140841;-68
2023/03/13 07:49:45;;;;;;;12.60;7.40;;;;;;;6.83;85.14;98945.02;220452;1256;139888;-70
2023/03/13 07:54:48;;;;;;;11.70;6.90;;;;;;;7.03;84.78;98943.32;219054;1257;140676;-70
2023/03/13 07:59:52;;;;;;;8.70;7.50;;;;;;;7.33;84.60;98932.84;218286;1257;141143;-71
2023/03/13 08:04:55;;;;;;;11.30;6.90;;;;;;;7.60;84.06;98932.65;217658;1260;139812;-71
2023/03/13 08:10:00;;;;;;;10.30;6.00;;;;;;;7.92;84.04;98924.52;217914;1257;140024;-71
2023/03/13 08:15:05;;;;;;;11.00;6.00;;;;;;;8.21;83.91;98923.18;217716;1257;140459;-68
2023/03/13 08:20:09;;;;;;;9.30;6.70;;;;;;;8.40;83.19;98905.48;219298;1255;141394;-70
2023/03/13 08:25:13;;;;;;;12.70;6.90;;;;;;;8.65;83.07;98897.48;219398;1256;140457;-69
2023/03/13 08:30:17;;;;;;;10.50;6.10;;;;;;;8.81;82.41;98894.11;217758;1260;144796;-70
2023/03/13 08:35:20;;;;;;;11.20;6.30;;;;;;;8.96;82.03;98889.06;217548;1260;139937;-69
2023/03/13 08:40:25;;;;;;;6.10;4.50;;;;;;;9.08;81.81;98886.10;218233;1256;231262;-69
2023/03/13 08:45:27;;;;;;;8.30;4.50;;;;;;;9.28;81.77;98882.73;217636;1257;140397;-68
2023/03/13 08:50:30;;;;;;;10.70;5.80;;;;;;;9.43;81.01;98874.68;217910;1258;141281;-68
2023/03/13 08:55:33;;;;;;;7.30;5.20;;;;;;;9.52;80.84;98859.66;217890;1257;142224;-72
2023/03/13 09:00:37;;;;;;;6.10;5.00;;;;;;;9.59;80.59;98863.52;218716;1257;140129;-69
2023/03/13 09:05:39;;;;;;;10.50;4.60;;;;;;;9.64;80.08;98865.88;218426;1257;140263;-69
2023/03/13 09:11:13;;;;;;;7.80;5.00;;;;;;;9.70;80.17;98858.98;218266;1260;140365;-71
2023/03/13 09:16:22;;;;;;;15.00;5.90;;;;;;;9.85;79.92;98849.73;217648;1260;143226;-71
2023/03/13 09:21:28;;;;;;;7.80;4.30;;;;;;;9.99;79.50;98849.14;219192;1256;143278;-70
2023/03/13 09:26:31;;;;;;;9.00;4.90;;;;;;;10.20;79.40;98851.56;218083;1256;140063;-70
2023/03/13 09:31:37;;;;;;;7.70;4.30;;;;;;;10.42;79.13;98849.67;217874;1257;141514;-69
2023/03/13 09:36:40;;;;;;;7.20;4.80;;;;;;;10.69;78.70;98855.90;219342;1259;140675;-70
2023/03/13 09:42:01;;;;;;;10.40;5.20;;;;;;;10.97;78.38;98850.21;219065;1257;141084;-68
2023/03/13 09:47:22;;;;;;;12.70;5.10;;;;;;;11.18;77.74;98839.64;218518;1256;141363;-70
2023/03/13 09:52:28;;;;;;;9.90;4.90;;;;;;;11.33;77.14;98829.50;217643;1260;140133;-68
2023/03/13 09:57:40;;;;;;;16.00;5.60;;;;;;;11.52;77.04;98822.31;220403;1259;141824;-71
2023/03/13 10:02:46;;;;;;;4.50;2.90;;;;;;;11.65;76.27;98801.24;217938;1257;142234;-73
2023/03/13 10:07:55;;;;;;;11.70;4.70;;;;;;;11.84;75.70;98782.80;218106;1257;140273;-68
2023/03/13 10:13:09;;;;;;;12.90;4.60;;;;;;;12.01;75.62;98782.58;218119;1259;139989;-69
2023/03/13 10:18:23;;;;;;;8.90;4.50;;;;;;;12.12;75.07;98774.35;218408;1257;140802;-66
2023/03/13 10:23:40;;;;;;;11.80;5.10;;;;;;;12.10;74.53;98756.24;218383;1257;139967;-70
2023/03/13 10:28:43;;;;;;;6.90;3.70;;;;;;;12.05;74.28;98743.89;217621;1257;139814;-69
2023/03/13 10:33:46;;;;;;;11.90;5.60;;;;;;;11.96;73.53;98738.07;218109;1257;140544;-69
2023/03/13 10:38:53;;;;;;;11.00;4.00;;;;;;;12.03;73.67;98734.98;217487;1257;140455;-70
2023/03/13 10:44:03;;;;;;;9.10;3.40;;;;;;;12.19;73.12;98725.94;218309;1260;141435;-70
2023/03/13 10:49:18;;;;;;;7.80;3.50;;;;;;;12.23;72.73;98715.29;217716;1257;141190;-73
2023/03/13 10:54:25;;;;;;;9.00;4.60;;;;;;;12.27;72.58;98697.70;217733;1257;140271;-73
2023/03/13 10:59:28;;;;;;;7.30;3.70;;;;;;;12.28;72.32;98683.37;218320;1257;139769;-70
2023/03/13 11:04:38;;;;;;;12.70;3.90;;;;;;;12.23;71.88;98673.02;217264;1257;139643;-71
2023/03/13 11:09:41;;;;;;;8.30;3.00;;;;;;;12.20;71.81;98664.44;218621;1260;139561;-72
2023/03/13 11:14:44;;;;;;;6.10;3.60;;;;;;;12.15;71.69;98659.11;217461;1261;139781;-71
2023/03/13 11:20:16;;;;;;;9.60;3.20;;;;;;;12.04;71.20;98653.98;217822;1257;140023;-68
2023/03/13 11:26:00;;;;;;;6.50;3.40;;;;;;;11.81;71.10;98653.05;217642;1257;141117;-69
2023/03/13 11:31:22;;;;;;;6.40;2.90;;;;;;;11.54;71.24;98650.16;218125;1257;140926;-69
2023/03/13 11:36:37;;;;;;;7.20;3.60;;;;;;;11.33;71.49;98643.92;220381;1257;140031;-73
2023/03/13 11:41:39;;;;;;;4.30;2.90;;;;;;;11.15;71.85;98638.78;220135;1257;140408;-77
2023/03/13 11:47:14;;;;;;;9.70;3.90;;;;;;;11.01;72.25;98627.45;218318;1256;139663;-71
2023/03/13 11:52:27;;;;;;;7.10;3.70;;;;;;;10.89;72.60;98612.88;220329;1257;140992;-68
2023/03/13 11:57:39;;;;;;;4.50;2.60;;;;;;;10.82;73.19;98600.91;220272;1256;141089;-75
2023/03/13 12:03:05;;;;;;;6.90;3.20;;;;;;;10.83;73.18;98593.40;219505;1257;140632;-68
2023/03/13 12:08:17;;;;;;;10.20;3.70;;;;;;;10.93;73.49;98596.73;217474;1260;139991;-68
2023/03/13 12:13:35;;;;;;;9.40;4.60;;;;;;;11.06;73.85;98597.38;218375;1260;140450;-72
2023/03/13 12:18:41;;;;;;;9.10;2.90;;;;;;;11.07;73.60;98595.71;217494;1260;140267;-67
2023/03/13 12:23:52;;;;;;;9.20;4.30;;;;;;;11.02;73.87;98587.94;218345;1257;140827;-69
2023/03/13 12:28:59;;;;;;;7.30;3.70;;;;;;;10.89;74.20;98583.44;217886;1260;140407;-70
2023/03/13 12:34:17;;;;;;;7.30;3.40;;;;;;;10.71;74.46;98571.04;217728;1260;140355;-69
2023/03/13 12:39:49;;;;;;;7.80;3.90;;;;;;;10.67;74.90;98564.38;217959;1259;141024;-71
2023/03/13 12:44:53;;;;;;;12.00;4.00;;;;;;;10.53;75.26;98539.66;217262;1257;140570;-68
2023/03/13 12:50:17;;;;;;;8.40;3.00;;;;;;;10.52;75.70;98532.67;217949;1260;140156;-69
2023/03/13 12:56:02;;;;;;;13.20;4.30;;;;;;;10.56;75.81;98523.27;217557;1262;140638;-68
2023/03/13 13:01:06;;;;;;;10.70;4.50;;;;;;;10.60;75.85;98520.92;217761;1260;141195;-67
2023/03/13 13:06:14;;;;;;;4.40;2.30;;;;;;;10.60;75.74;98519.91;218424;1260;140235;-70
2023/03/13 13:11:35;;;;;;;;;;;;;;;10.60;75.64;98517.19;217343;1260;140574;-71
2023/03/13 13:16:53;;;;;;;7.20;3.40;;;;;;;10.58;75.78;98505.25;217898;1260;126339;-67
2023/03/13 13:22:36;;;;;;;6.60;3.00;;;;;;;10.60;75.63;98505.05;218010;1261;140307;-66
2023/03/13 13:27:40;;;;;;;7.90;3.30;;;;;;;10.57;75.37;98506.73;219209;1258;140170;-67
2023/03/13 13:32:51;;;;;;;7.90;3.10;;;;;;;10.51;75.43;98516.05;218648;1260;139827;-67
2023/03/13 13:38:42;;;;;;;6.70;2.90;;;;;;;10.45;75.46;98514.33;218217;1260;140187;-67
2023/03/13 13:43:48;;;;;;;4.20;2.40;;;;;;;10.42;75.86;98513.04;216384;1269;140223;-74
2023/03/13 13:49:06;;;;;;;8.10;3.50;;;;;;;10.39;75.66;98514.48;219940;1260;140240;-70
2023/03/13 13:54:11;;;;;;;11.00;4.00;;;;;;;10.33;75.54;98511.39;218844;1256;139778;-79
2023/03/13 13:59:20;;;;;;;4.90;3.20;;;;;;;10.33;75.52;98513.14;217553;1257;140453;-74
2023/03/13 14:04:35;;;;;;;6.30;3.20;;;;;;;10.32;75.67;98510.42;217660;1258;141932;-72
2023/03/13 14:09:39;;;;;;;9.60;3.60;;;;;;;10.30;75.63;98511.00;218591;1257;140836;-72
2023/03/13 14:14:42;;;;;;;4.70;2.80;;;;;;;10.25;75.67;98509.60;218600;1257;141293;-72
2023/03/13 14:19:48;;;;;;;8.00;2.80;;;;;;;10.19;75.91;98500.30;219129;1257;140231;-71
2023/03/13 14:24:58;;;;;;;8.10;2.80;;;;;;;10.14;76.09;98486.94;219177;1257;140223;-72
2023/03/13 14:30:10;;;;;;;11.10;3.10;;;;;;;10.09;76.25;98468.88;217382;1258;141431;-72
2023/03/13 14:35:21;;;;;;;6.50;3.50;;;;;;;10.04;76.45;98458.17;217616;1257;140550;-72
2023/03/13 14:40:27;;;;;;;4.90;2.70;;;;;;;9.99;76.85;98471.20;217502;1257;140876;-72
2023/03/13 14:45:35;;;;;;;4.40;2.80;;;;;;;9.97;76.91;98477.85;217437;1257;139916;-71
2023/03/13 14:50:40;;;;;;;10.60;3.80;;;;;;;9.94;76.95;98468.95;217426;1257;141227;-72
2023/03/13 14:55:43;;;;;;;7.90;2.90;;;;;;;9.93;77.10;98460.00;217597;1258;141213;-72
2023/03/13 15:00:49;;;;;;;8.50;3.90;;;;;;;9.95;77.10;98456.77;217386;1257;142331;-74
2023/03/13 15:06:09;;;;;;;9.60;3.50;;;;;;;9.96;77.10;98441.33;217755;1260;141407;-73
2023/03/13 15:11:28;;;;;;;8.80;2.90;;;;;;;9.97;77.21;98422.75;217492;1260;142937;-70
2023/03/13 15:16:32;;;;;;;7.40;3.70;;;;;;;10.01;77.38;98421.91;217852;1257;140062;-71
2023/03/13 15:21:36;;;;;;;7.60;4.50;;;;;;;10.04;77.37;98435.08;217329;1260;141707;-70
2023/03/13 15:26:42;;;;;;;6.30;2.80;;;;;;;10.08;77.32;98440.40;217247;1260;142722;-70
2023/03/13 15:31:45;;;;;;;7.90;2.30;;;;;;;10.11;77.42;98452.64;217592;1257;140204;-67
2023/03/13 15:36:49;;;;;;;9.30;2.90;;;;;;;10.11;77.16;98450.73;217302;1257;139754;-67
2023/03/13 15:41:52;;;;;;;8.40;2.90;;;;;;;10.08;77.44;98441.14;218658;1257;142442;-71
2023/03/13 15:46:56;;;;;;;5.60;4.00;;;;;;;10.10;77.42;98433.79;217416;1257;141034;-69
2023/03/13 15:51:59;;;;;;;8.60;3.20;;;;;;;10.11;77.55;98433.79;220448;1256;140582;-71
2023/03/13 15:57:02;;;;;;;6.50;3.50;;;;;;;10.16;77.60;98425.23;220118;1257;140901;-71
2023/03/13 16:02:17;;;;;;;9.10;4.00;;;;;;;10.17;77.39;98424.76;218984;1256;140963;-70
2023/03/13 16:07:21;;;;;;;7.30;3.90;;;;;;;10.19;77.53;98422.91;217524;1257;140329;-72
2023/03/13 16:12:24;;;;;;;8.90;4.20;;;;;;;10.21;77.52;98418.23;218659;1256;141516;-72
2023/03/13 16:17:28;;;;;;;7.20;3.30;;;;;;;10.23;77.62;98428.90;217138;1257;336616;-73
2023/03/13 16:22:30;;;;;;;14.80;10.10;;;;;;;10.25;77.50;98433.23;217493;1257;140395;-68
2023/03/13 16:27:33;;;;;;;102.00;48.80;;;;;;;10.25;77.50;98433.00;218793;1257;141382;-69
2023/03/13 16:32:36;;;;;;;16.60;10.10;;;;;;;10.24;77.46;98432.79;219175;1256;141862;-69
2023/03/13 16:37:40;;;;;;;8.90;7.60;;;;;;;10.22;77.37;98439.81;218481;1260;141687;-71
2023/03/13 16:42:43;;;;;;;6.70;4.70;;;;;;;10.20;77.29;98443.31;218467;1257;140684;-73
2023/03/13 16:47:46;;;;;;;4.70;4.20;;;;;;;10.17;77.19;98443.08;217461;1257;140470;-72
2023/03/13 16:52:50;;;;;;;6.90;4.00;;;;;;;10.14;77.24;98439.49;217472;1256;140316;-72
2023/03/13 16:57:58;;;;;;;6.70;3.70;;;;;;;10.12;77.29;98433.58;217461;1257;140910;-67
2023/03/13 17:03:00;;;;;;;8.00;4.50;;;;;;;10.11;77.34;98428.95;217463;1257;141272;-73
2023/03/13 17:08:04;;;;;;;14.70;5.70;;;;;;;10.06;77.14;98423.79;217950;1257;139975;-74
2023/03/13 17:13:08;;;;;;;6.40;4.20;;;;;;;10.01;77.05;98416.74;218194;1257;140981;-75
2023/03/13 17:18:11;;;;;;;6.90;4.60;;;;;;;9.97;77.17;98415.02;217748;1257;143153;-77
2023/03/13 17:23:13;;;;;;;11.00;5.70;;;;;;;9.94;77.04;98410.65;217423;1257;140188;-71
2023/03/13 17:28:16;;;;;;;10.70;4.00;;;;;;;9.96;76.98;98410.80;217451;1260;142018;-73
2023/03/13 17:33:19;;;;;;;5.90;4.10;;;;;;;9.96;76.88;98415.18;217857;1256;139964;-73
2023/03/13 17:38:22;;;;;;;4.30;3.40;;;;;;;9.96;76.89;98419.86;220262;1256;140603;-74
2023/03/13 17:43:27;;;;;;;9.50;4.40;;;;;;;9.95;76.76;98410.02;217998;1257;142101;-72
2023/03/13 17:48:32;;;;;;;5.00;3.10;;;;;;;9.97;76.60;98421.36;220298;1256;140723;-78
2023/03/13 17:53:35;;;;;;;8.60;4.90;;;;;;;10.00;76.59;98425.47;218007;1257;143296;-71
2023/03/13 17:58:38;;;;;;;6.10;4.40;;;;;;;10.02;76.34;98414.02;218588;1256;140575;-68
2023/03/13 18:03:41;;;;;;;7.30;4.60;;;;;;;10.01;76.10;98418.29;218677;1256;140480;-71
2023/03/13 18:08:45;;;;;;;6.60;4.50;;;;;;;10.01;75.76;98406.73;218079;1257;140052;-71
2023/03/13 18:13:48;;;;;;;5.60;4.00;;;;;;;10.00;75.64;98390.55;218723;1256;140808;-71
2023/03/13 18:18:53;;;;;;;6.50;4.90;;;;;;;9.96;75.41;98358.59;217975;1257;142109;-67
2023/03/13 18:23:57;;;;;;;5.40;4.40;;;;;;;9.91;75.24;98378.22;217334;1257;140099;-70
2023/03/13 18:29:05;;;;;;;10.50;4.60;;;;;;;9.88;75.00;98392.85;218278;1260;142139;-70
2023/03/13 18:34:11;;;;;;;6.30;5.40;;;;;;;9.87;74.91;98391.41;217403;1257;140127;-70
2023/03/13 18:39:16;;;;;;;6.40;4.50;;;;;;;9.86;74.75;98394.38;217364;1256;139891;-67
2023/03/13 18:44:20;;;;;;;9.20;4.90;;;;;;;9.85;74.61;98406.36;217458;1256;140316;-68
2023/03/13 18:49:23;;;;;;;5.60;5.10;;;;;;;9.85;74.57;98400.45;217584;1256;140102;-67
2023/03/13 18:54:26;;;;;;;7.10;5.40;;;;;;;9.83;74.38;98378.84;217223;1256;139922;-70
2023/03/13 18:59:29;;;;;;;6.90;4.30;;;;;;;9.81;74.33;98388.45;217193;1257;139672;-71
2023/03/13 19:04:31;;;;;;;7.80;4.70;;;;;;;9.79;74.21;98388.61;217225;1259;140222;-70
2023/03/13 19:09:35;;;;;;;8.70;5.50;;;;;;;9.76;74.07;98384.84;216942;1259;141322;-70
2023/03/13 19:14:49;;;;;;;5.90;4.80;;;;;;;9.72;74.06;98384.63;217666;1256;140396;-71
2023/03/13 19:19:55;;;;;;;9.10;5.60;;;;;;;9.71;73.79;98382.49;217354;1257;140570;-70
2023/03/13 19:25:00;;;;;;;6.00;4.20;;;;;;;9.69;73.78;98385.26;217607;1260;140083;-70
2023/03/13 19:30:03;;;;;;;7.20;5.00;;;;;;;9.70;73.72;98378.13;217866;1256;140649;-69
2023/03/13 19:35:07;;;;;;;7.90;4.90;;;;;;;9.69;73.47;98372.11;219840;1256;141933;-69
2023/03/13 19:40:27;;;;;;;6.30;5.00;;;;;;;9.67;73.25;98371.20;220182;1256;140661;-66
2023/03/13 19:45:36;;;;;;;7.60;5.40;;;;;;;9.66;73.30;98361.14;219246;1257;140280;-69
2023/03/13 19:50:44;;;;;;;10.60;4.80;;;;;;;9.64;73.34;98352.23;217449;1256;140270;-67
2023/03/13 19:55:49;;;;;;;7.30;5.10;;;;;;;9.62;73.39;98352.98;220090;1256;140546;-69
2023/03/13 20:00:54;;;;;;;46.40;25.30;;;;;;;9.60;73.27;98364.56;218884;1256;139831;-70
2023/03/13 20:06:01;;;;;;;20.20;12.10;;;;;;;9.60;73.41;98359.67;217277;1260;141121;-67
2023/03/13 20:11:08;;;;;;;7.90;5.60;;;;;;;9.60;73.36;98352.06;218881;1257;140705;-67
2023/03/13 20:16:13;;;;;;;8.40;6.80;;;;;;;9.58;73.29;98345.73;217544;1256;139979;-67
2023/03/13 20:21:21;;;;;;;10.30;5.20;;;;;;;9.56;73.14;98339.77;218657;1259;139844;-68
2023/03/13 20:26:25;;;;;;;6.30;4.00;;;;;;;9.54;73.31;98336.55;217325;1257;139953;-68
2023/03/13 20:31:30;;;;;;;8.70;5.30;;;;;;;9.50;73.09;98327.39;217388;1256;141051;-71
2023/03/13 20:36:34;;;;;;;7.30;4.80;;;;;;;9.46;73.09;98317.35;217368;1256;139510;-69
2023/03/13 20:41:38;;;;;;;7.70;5.20;;;;;;;9.41;73.14;98314.57;217312;1259;140883;-68
2023/03/13 20:46:42;;;;;;;6.60;4.90;;;;;;;9.37;73.21;98317.16;217954;1256;140485;-69
2023/03/13 20:51:44;;;;;;;8.90;5.20;;;;;;;9.36;73.18;98308.17;217510;1257;142130;-68
2023/03/13 20:56:47;;;;;;;5.60;4.30;;;;;;;9.34;72.99;98299.33;217450;1260;139756;-72
2023/03/13 21:01:51;;;;;;;11.10;4.90;;;;;;;9.33;72.91;98276.67;218801;1256;141053;-70
2023/03/13 21:06:56;;;;;;;5.80;4.60;;;;;;;9.29;72.76;98272.08;217165;1256;142813;-68
2023/03/13 21:12:00;;;;;;;7.70;4.30;;;;;;;9.21;72.47;98268.59;217495;1257;139849;-72
2023/03/13 21:17:04;;;;;;;4.10;3.50;;;;;;;9.16;72.42;98272.36;217907;1256;140438;-77
2023/03/13 21:22:06;;;;;;;8.80;4.90;;;;;;;9.09;72.29;98273.30;217506;1256;140444;-67
2023/03/13 21:27:10;;;;;;;8.20;6.00;;;;;;;9.06;72.21;98275.84;218437;1256;140592;-70
2023/03/13 21:32:14;;;;;;;7.00;4.10;;;;;;;9.04;72.12;98269.45;218403;1256;140096;-69
2023/03/13 21:37:16;;;;;;;9.00;5.20;;;;;;;8.96;71.83;98255.80;217956;1256;141053;-71
2023/03/13 21:42:19;;;;;;;6.10;4.40;;;;;;;8.83;71.78;98253.85;217400;1256;139270;-70
2023/03/13 21:47:23;;;;;;;5.40;4.00;;;;;;;8.75;71.80;98260.61;217449;1257;141093;-70
2023/03/13 21:52:29;;;;;;;6.70;4.50;;;;;;;8.69;71.65;98255.74;220431;1256;140446;-69
2023/03/13 21:57:33;;;;;;;10.10;4.90;;;;;;;8.63;71.76;98258.67;220443;1256;142970;-74
2023/03/13 22:02:36;;;;;;;5.70;4.00;;;;;;;8.60;71.75;98249.63;217561;1259;138993;-73
2023/03/13 22:07:40;;;;;;;7.90;3.80;;;;;;;8.59;71.65;98248.83;217663;1257;139488;-69
2023/03/13 22:12:44;;;;;;;8.50;5.40;;;;;;;8.58;71.75;98249.67;217651;1259;139651;-76
2023/03/13 22:17:48;;;;;;;10.20;6.10;;;;;;;8.52;71.67;98240.90;218283;1257;138821;-71
2023/03/13 22:22:51;;;;;;;8.60;6.00;;;;;;;8.49;71.47;98224.41;218055;1260;140575;-68
2023/03/13 22:27:55;;;;;;;12.10;7.40;;;;;;;8.46;71.66;98214.67;217466;1257;139945;-70
2023/03/13 22:32:58;;;;;;;49.40;18.50;;;;;;;8.44;71.78;98217.80;218391;1256;140020;-70
2023/03/13 22:38:01;;;;;;;161.60;103.00;;;;;;;8.47;71.61;98221.42;217499;1257;140246;-66
2023/03/13 22:43:04;;;;;;;8.60;5.80;;;;;;;8.47;71.44;98210.17;217360;1256;140459;-69
2023/03/13 22:48:06;;;;;;;9.10;5.70;;;;;;;8.45;71.54;98205.01;217797;1256;139931;-70
2023/03/13 22:53:11;;;;;;;8.00;5.30;;;;;;;8.43;71.65;98205.36;217761;1259;139099;-74
2023/03/13 22:58:15;;;;;;;7.00;5.20;;;;;;;8.44;71.44;98195.29;217975;1257;139991;-76
2023/03/13 23:03:20;;;;;;;4.80;3.90;;;;;;;8.46;71.28;98186.05;217527;1260;139599;-72
2023/03/13 23:08:23;;;;;;;7.20;4.60;;;;;;;8.49;71.34;98176.52;218207;1257;139705;-66
2023/03/13 23:13:25;;;;;;;8.90;4.40;;;;;;;8.53;71.37;98173.98;217631;1256;139327;-68
2023/03/13 23:18:29;;;;;;;5.60;3.80;;;;;;;8.62;71.22;98167.14;218761;1256;140961;-67
2023/03/13 23:23:32;;;;;;;6.50;5.90;;;;;;;8.69;71.02;98152.20;218534;1259;140174;-70
2023/03/13 23:28:36;;;;;;;9.30;4.70;;;;;;;8.74;71.00;98144.73;217430;1256;140384;-70
2023/03/13 23:33:39;;;;;;;7.10;3.90;;;;;;;8.79;70.71;98137.46;217868;1257;139571;-72